createdAt,value
2018-09-24T00:00:29.220Z,1021.82
2018-09-24T00:01:29.301Z,1021.87
2018-09-24T00:02:29.581Z,1021.91
2018-09-24T00:03:29.302Z,1021.90
2018-09-24T00:04:29.393Z,1021.93
2018-09-24T00:05:29.364Z,1021.95
2018-09-24T00:06:29.448Z,1021.95
2018-09-24T00:08:29.509Z,1021.97
2018-09-24T00:09:29.792Z,1022.00
2018-09-24T00:10:29.524Z,1022.04
2018-09-24T00:11:29.546Z,1022.04
2018-09-24T00:12:29.572Z,1022.06
2018-09-24T00:13:29.660Z,1022.05
2018-09-24T00:14:29.688Z,1022.10
2018-09-24T00:15:29.968Z,1022.04
2018-09-24T00:16:29.701Z,1022.06
2018-09-24T00:17:29.778Z,1022.07
2018-09-24T00:18:29.811Z,1022.08
2018-09-24T00:19:29.854Z,1022.08
2018-09-24T00:20:29.877Z,1022.10
2018-09-24T00:21:29.847Z,1022.10
2018-09-24T00:22:30.173Z,1022.15
2018-09-24T00:23:29.957Z,1022.13
2018-09-24T00:24:29.988Z,1022.16
2018-09-24T00:25:29.971Z,1022.14
2018-09-24T00:26:30.049Z,1022.19
2018-09-24T00:27:30.023Z,1022.24
2018-09-24T00:28:30.064Z,1022.19
2018-09-24T00:29:30.441Z,1022.25
2018-09-24T00:30:30.169Z,1022.26
2018-09-24T00:31:30.151Z,1022.28
2018-09-24T00:32:30.184Z,1022.32
2018-09-24T00:33:30.209Z,1022.29
2018-09-24T00:34:30.284Z,1022.32
2018-09-24T00:35:30.320Z,1022.34
2018-09-24T00:36:30.596Z,1022.38
2018-09-24T00:37:30.383Z,1022.40
2018-09-24T00:38:30.408Z,1022.45
2018-09-24T00:39:30.388Z,1022.48
2018-09-24T00:40:30.464Z,1022.48
2018-09-24T00:41:30.452Z,1022.50
2018-09-24T00:42:30.523Z,1022.54
2018-09-24T00:43:30.886Z,1022.58
2018-09-24T00:44:30.585Z,1022.55
2018-09-24T00:45:30.616Z,1022.56
2018-09-24T00:46:30.648Z,1022.62
2018-09-24T00:47:30.675Z,1022.58
2018-09-24T00:48:30.658Z,1022.61
2018-09-24T00:49:30.687Z,1022.66
2018-09-24T00:50:31.023Z,1022.66
2018-09-24T00:51:30.801Z,1022.68
2018-09-24T00:52:30.780Z,1022.68
2018-09-24T00:53:30.804Z,1022.69
2018-09-24T00:54:30.885Z,1022.70
2018-09-24T00:55:30.923Z,1022.69
2018-09-24T00:56:30.950Z,1022.71
2018-09-24T00:57:31.242Z,1022.71
2018-09-24T00:58:30.963Z,1022.72
2018-09-24T00:59:30.993Z,1022.78
2018-09-24T01:00:31.024Z,1022.80
2018-09-24T01:01:31.101Z,1022.88
2018-09-24T01:02:31.123Z,1022.86
2018-09-24T01:03:31.156Z,1022.89
2018-09-24T01:04:31.432Z,1022.89
2018-09-24T01:05:31.163Z,1022.93
2018-09-24T01:06:31.243Z,1022.91
2018-09-24T01:07:31.279Z,1022.95
2018-09-24T01:08:31.256Z,1022.95
2018-09-24T01:09:31.335Z,1023.00
2018-09-24T01:10:31.371Z,1022.98
2018-09-24T01:11:31.644Z,1022.97
2018-09-24T01:12:31.372Z,1023.08
2018-09-24T01:13:31.452Z,1023.08
2018-09-24T01:14:31.483Z,1023.10
2018-09-24T01:15:31.465Z,1023.15
2018-09-24T01:16:31.549Z,1023.15
2018-09-24T01:17:31.524Z,1023.15
2018-09-24T01:18:31.862Z,1023.19
2018-09-24T01:19:31.632Z,1023.18
2018-09-24T01:20:31.666Z,1023.21
2018-09-24T01:21:31.649Z,1023.20
2018-09-24T01:22:31.725Z,1023.24
2018-09-24T01:23:31.754Z,1023.27
2018-09-24T01:24:31.739Z,1023.31
2018-09-24T01:26:32.108Z,1023.28
2018-09-24T01:27:31.876Z,1023.29
2018-09-24T01:28:31.908Z,1023.32
2018-09-24T01:29:31.891Z,1023.38
2018-09-24T01:30:31.970Z,1023.38
2018-09-24T01:31:31.954Z,1023.44
2018-09-24T01:32:31.984Z,1023.44
2018-09-24T01:33:32.353Z,1023.44
2018-09-24T01:34:32.097Z,1023.47
2018-09-24T01:35:32.135Z,1023.51
2018-09-24T01:36:32.098Z,1023.51
2018-09-24T01:37:32.144Z,1023.56
2018-09-24T01:38:32.181Z,1023.55
2018-09-24T01:39:32.182Z,1023.60
2018-09-24T01:40:32.567Z,1023.59
2018-09-24T01:41:32.293Z,1023.62
2018-09-24T01:42:32.328Z,1023.62
2018-09-24T01:43:32.302Z,1023.67
2018-09-24T01:44:32.388Z,1023.68
2018-09-24T01:45:32.362Z,1023.72
2018-09-24T01:46:32.445Z,1023.70
2018-09-24T01:47:32.730Z,1023.72
2018-09-24T01:48:32.479Z,1023.78
2018-09-24T01:49:32.491Z,1023.80
2018-09-24T01:50:32.521Z,1023.80
2018-09-24T01:51:32.600Z,1023.81
2018-09-24T01:52:32.574Z,1023.79
2018-09-24T01:53:32.655Z,1023.76
2018-09-24T01:54:32.930Z,1023.78
2018-09-24T01:55:32.710Z,1023.79
2018-09-24T01:56:32.739Z,1023.75
2018-09-24T01:57:32.719Z,1023.81
2018-09-24T01:58:32.800Z,1023.84
2018-09-24T01:59:32.798Z,1023.85
2018-09-24T02:00:32.865Z,1023.87
2018-09-24T02:01:33.153Z,1023.86
2018-09-24T02:03:32.900Z,1023.80
2018-09-24T02:04:32.935Z,1023.79
2018-09-24T02:05:32.957Z,1023.83
2018-09-24T02:06:33.040Z,1023.85
2018-09-24T02:07:33.075Z,1023.86
2018-09-24T02:08:33.352Z,1023.91
2018-09-24T02:09:33.138Z,1023.89
2018-09-24T02:10:33.158Z,1023.92
2018-09-24T02:11:33.141Z,1023.93
2018-09-24T02:12:33.220Z,1023.92
2018-09-24T02:13:33.249Z,1023.89
2018-09-24T02:14:33.530Z,1023.90
2018-09-24T02:15:33.308Z,1023.93
2018-09-24T02:16:33.344Z,1023.90
2018-09-24T02:17:33.327Z,1023.92
2018-09-24T02:18:33.348Z,1023.96
2018-09-24T02:19:33.426Z,1023.97
2018-09-24T02:20:33.708Z,1023.94
2018-09-24T02:21:33.444Z,1023.99
2018-09-24T02:22:33.477Z,1023.98
2018-09-24T02:23:33.563Z,1023.97
2018-09-24T02:24:33.529Z,1024.04
2018-09-24T02:25:33.555Z,1024.01
2018-09-24T02:26:33.892Z,1024.02
2018-09-24T02:27:33.671Z,1024.01
2018-09-24T02:28:33.695Z,1023.97
2018-09-24T02:29:33.681Z,1024.01
2018-09-24T02:30:33.759Z,1024.02
2018-09-24T02:31:33.789Z,1023.99
2018-09-24T02:32:33.784Z,1024.00
2018-09-24T02:33:34.096Z,1024.03
2018-09-24T02:34:33.835Z,1024.03
2018-09-24T02:35:33.862Z,1024.05
2018-09-24T02:37:33.915Z,1024.07
2018-09-24T02:38:34.005Z,1024.06
2018-09-24T02:39:34.040Z,1024.08
2018-09-24T02:40:34.303Z,1024.12
2018-09-24T02:41:34.032Z,1024.08
2018-09-24T02:42:34.123Z,1024.12
2018-09-24T02:43:34.101Z,1024.14
2018-09-24T02:44:34.133Z,1024.21
2018-09-24T02:45:34.206Z,1024.20
2018-09-24T02:46:34.187Z,1024.22
2018-09-24T02:47:34.522Z,1024.28
2018-09-24T02:48:34.292Z,1024.30
2018-09-24T02:49:34.278Z,1024.29
2018-09-24T02:50:34.353Z,1024.29
2018-09-24T02:51:34.392Z,1024.32
2018-09-24T02:52:34.423Z,1024.30
2018-09-24T02:53:34.448Z,1024.32
2018-09-24T02:54:34.738Z,1024.33
2018-09-24T02:55:34.454Z,1024.33
2018-09-24T02:56:34.530Z,1024.35
2018-09-24T02:57:34.574Z,1024.35
2018-09-24T02:58:34.596Z,1024.38
2018-09-24T02:59:34.576Z,1024.37
2018-09-24T03:00:34.600Z,1024.40
2018-09-24T03:01:34.930Z,1024.42
2018-09-24T03:02:34.709Z,1024.45
2018-09-24T03:03:34.745Z,1024.47
2018-09-24T03:06:34.827Z,1024.52
2018-09-24T03:07:34.858Z,1024.53
2018-09-24T03:08:35.138Z,1024.57
2018-09-24T03:09:34.920Z,1024.53
2018-09-24T03:10:34.903Z,1024.61
2018-09-24T03:11:34.932Z,1024.58
2018-09-24T03:12:34.956Z,1024.61
2018-09-24T03:13:35.046Z,1024.65
2018-09-24T03:14:35.084Z,1024.62
2018-09-24T03:15:35.354Z,1024.64
2018-09-24T03:16:35.082Z,1024.62
2018-09-24T03:17:35.120Z,1024.62
2018-09-24T03:18:35.189Z,1024.65
2018-09-24T03:19:35.167Z,1024.63
2018-09-24T03:20:35.246Z,1024.65
2018-09-24T03:21:35.225Z,1024.70
2018-09-24T03:22:35.616Z,1024.65
2018-09-24T03:23:35.357Z,1024.66
2018-09-24T03:24:35.317Z,1024.68
2018-09-24T03:25:35.351Z,1024.65
2018-09-24T03:26:35.436Z,1024.71
2018-09-24T03:27:35.410Z,1024.71
2018-09-24T03:28:35.484Z,1024.76
2018-09-24T03:29:35.770Z,1024.73
2018-09-24T03:30:35.555Z,1024.72
2018-09-24T03:31:35.579Z,1024.78
2018-09-24T03:32:35.607Z,1024.85
2018-09-24T03:33:35.637Z,1024.83
2018-09-24T03:34:35.662Z,1024.85
2018-09-24T03:35:35.658Z,1024.88
2018-09-24T03:36:35.983Z,1024.88
2018-09-24T03:37:35.757Z,1024.90
2018-09-24T03:38:35.738Z,1024.92
2018-09-24T03:39:35.870Z,1024.90
2018-09-24T03:40:35.795Z,1024.93
2018-09-24T03:41:35.891Z,1024.97
2018-09-24T03:42:35.912Z,1024.96
2018-09-24T03:43:36.180Z,1024.99
2018-09-24T03:44:35.970Z,1024.99
2018-09-24T03:45:35.943Z,1025.05
2018-09-24T03:46:36.021Z,1025.07
2018-09-24T03:47:36.001Z,1025.05
2018-09-24T03:48:36.077Z,1025.06
2018-09-24T03:49:36.072Z,1025.06
2018-09-24T03:50:36.395Z,1025.08
2018-09-24T03:51:36.173Z,1025.08
2018-09-24T03:52:36.169Z,1025.10
2018-09-24T03:53:36.194Z,1025.13
2018-09-24T03:54:36.277Z,1025.15
2018-09-24T03:55:36.291Z,1025.13
2018-09-24T03:56:36.322Z,1025.13
2018-09-24T03:57:36.601Z,1025.11
2018-09-24T03:58:36.385Z,1025.14
2018-09-24T03:59:36.360Z,1025.17
2018-09-24T04:00:36.443Z,1025.18
2018-09-24T04:01:36.468Z,1025.16
2018-09-24T04:02:36.498Z,1025.22
2018-09-24T04:03:36.529Z,1025.24
2018-09-24T04:04:36.827Z,1025.21
2018-09-24T04:05:36.590Z,1025.27
2018-09-24T04:06:36.619Z,1025.26
2018-09-24T04:07:36.649Z,1025.27
2018-09-24T04:08:36.626Z,1025.28
2018-09-24T04:12:36.793Z,1025.35
2018-09-24T04:13:37.074Z,1025.38
2018-09-24T04:14:36.863Z,1025.45
2018-09-24T04:15:36.830Z,1025.43
2018-09-24T04:16:36.919Z,1025.46
2018-09-24T04:17:36.896Z,1025.45
2018-09-24T04:18:36.981Z,1025.46
2018-09-24T04:19:37.065Z,1025.43
2018-09-24T04:20:37.283Z,1025.49
2018-09-24T04:21:37.015Z,1025.51
2018-09-24T04:22:37.096Z,1025.50
2018-09-24T04:23:37.067Z,1025.50
2018-09-24T04:24:37.148Z,1025.53
2018-09-24T04:25:37.127Z,1025.58
2018-09-24T04:26:37.208Z,1025.53
2018-09-24T04:27:37.848Z,1025.52
2018-09-24T04:28:37.223Z,1025.51
2018-09-24T04:29:37.312Z,1025.52
2018-09-24T04:30:37.338Z,1025.53
2018-09-24T04:31:37.306Z,1025.54
2018-09-24T04:32:37.341Z,1025.53
2018-09-24T04:33:37.373Z,1025.55
2018-09-24T04:34:37.698Z,1025.55
2018-09-24T04:35:37.485Z,1025.61
2018-09-24T04:36:37.455Z,1025.62
2018-09-24T04:37:37.484Z,1025.63
2018-09-24T04:38:37.534Z,1025.65
2018-09-24T04:39:37.650Z,1025.68
2018-09-24T04:40:37.646Z,1025.67
2018-09-24T04:41:37.908Z,1025.71
2018-09-24T04:42:37.699Z,1025.72
2018-09-24T04:43:37.674Z,1025.75
2018-09-24T04:44:37.742Z,1025.75
2018-09-24T04:45:37.812Z,1025.78
2018-09-24T04:46:37.818Z,1025.80
2018-09-24T04:47:37.794Z,1025.76
2018-09-24T04:48:38.117Z,1025.81
2018-09-24T04:49:37.844Z,1025.81
2018-09-24T04:50:37.920Z,1025.78
2018-09-24T04:51:37.951Z,1025.81
2018-09-24T04:52:37.939Z,1025.80
2018-09-24T04:53:37.989Z,1025.80
2018-09-24T04:54:38.016Z,1025.77
2018-09-24T04:55:38.317Z,1025.82
2018-09-24T04:56:38.070Z,1025.86
2018-09-24T04:57:38.089Z,1025.86
2018-09-24T04:58:38.247Z,1025.90
2018-09-24T04:59:38.187Z,1025.88
2018-09-24T05:00:38.177Z,1025.93
2018-09-24T05:01:38.203Z,1025.96
2018-09-24T05:02:38.279Z,1025.98
2018-09-24T05:03:38.255Z,1025.98
2018-09-24T05:04:38.335Z,1026.00
2018-09-24T05:05:38.317Z,1026.03
2018-09-24T05:06:38.400Z,1026.05
2018-09-24T05:07:38.682Z,1026.04
2018-09-24T05:08:38.406Z,1026.04
2018-09-24T05:09:38.483Z,1026.04
2018-09-24T05:10:38.519Z,1026.08
2018-09-24T05:11:38.499Z,1026.10
2018-09-24T05:12:38.572Z,1026.09
2018-09-24T05:13:38.854Z,1026.15
2018-09-24T05:14:38.605Z,1026.13
2018-09-24T05:15:38.661Z,1026.14
2018-09-24T05:16:38.652Z,1026.16
2018-09-24T05:18:38.750Z,1026.17
2018-09-24T05:19:38.785Z,1026.18
2018-09-24T05:20:38.764Z,1026.18
2018-09-24T05:21:38.794Z,1026.25
2018-09-24T05:22:38.875Z,1026.24
2018-09-24T05:23:38.909Z,1026.23
2018-09-24T05:24:38.937Z,1026.22
2018-09-24T05:25:38.913Z,1026.26
2018-09-24T05:26:39.248Z,1026.27
2018-09-24T05:27:38.968Z,1026.29
2018-09-24T05:28:39.050Z,1026.29
2018-09-24T05:29:39.082Z,1026.31
2018-09-24T05:30:39.056Z,1026.30
2018-09-24T05:31:39.089Z,1026.32
2018-09-24T05:32:39.122Z,1026.35
2018-09-24T05:33:39.497Z,1026.34
2018-09-24T05:34:39.321Z,1026.34
2018-09-24T05:35:39.253Z,1026.37
2018-09-24T05:36:39.232Z,1026.40
2018-09-24T05:37:39.325Z,1026.36
2018-09-24T05:38:39.444Z,1026.42
2018-09-24T05:39:39.326Z,1026.38
2018-09-24T05:40:39.706Z,1026.42
2018-09-24T05:41:39.381Z,1026.41
2018-09-24T05:42:39.416Z,1026.41
2018-09-24T05:43:39.511Z,1026.41
2018-09-24T05:44:39.469Z,1026.47
2018-09-24T05:45:39.501Z,1026.47
2018-09-24T05:46:39.580Z,1026.53
2018-09-24T05:47:39.867Z,1026.52
2018-09-24T05:48:39.642Z,1026.57
2018-09-24T05:49:39.621Z,1026.63
2018-09-24T05:50:39.657Z,1026.58
2018-09-24T05:51:39.685Z,1026.56
2018-09-24T05:52:39.761Z,1026.63
2018-09-24T05:53:39.737Z,1026.63
2018-09-24T05:54:40.065Z,1026.63
2018-09-24T05:55:39.846Z,1026.68
2018-09-24T05:56:39.831Z,1026.67
2018-09-24T05:57:39.863Z,1026.68
2018-09-24T05:58:39.888Z,1026.83
2018-09-24T05:59:39.916Z,1026.74
2018-09-24T06:00:40.010Z,1026.82
2018-09-24T06:01:40.274Z,1026.82
2018-09-24T06:02:40.058Z,1026.84
2018-09-24T06:03:40.035Z,1026.89
2018-09-24T06:04:40.157Z,1026.89
2018-09-24T06:05:40.093Z,1026.90
2018-09-24T06:06:40.175Z,1026.91
2018-09-24T06:07:40.151Z,1026.93
2018-09-24T06:08:40.492Z,1027.00
2018-09-24T06:09:40.266Z,1026.99
2018-09-24T06:10:40.289Z,1027.03
2018-09-24T06:11:40.374Z,1027.02
2018-09-24T06:12:40.303Z,1027.05
2018-09-24T06:13:40.394Z,1027.04
2018-09-24T06:14:40.391Z,1027.09
2018-09-24T06:15:40.387Z,1027.09
2018-09-24T06:16:40.476Z,1027.15
2018-09-24T06:17:40.450Z,1027.17
2018-09-24T06:18:40.527Z,1027.21
2018-09-24T06:19:40.504Z,1027.23
2018-09-24T06:20:40.587Z,1027.21
2018-09-24T06:21:40.927Z,1027.25
2018-09-24T06:22:40.647Z,1027.25
2018-09-24T06:23:40.680Z,1027.31
2018-09-24T06:24:40.665Z,1027.33
2018-09-24T06:25:40.698Z,1027.33
2018-09-24T06:26:40.772Z,1027.34
2018-09-24T06:28:41.130Z,1027.37
2018-09-24T06:29:40.802Z,1027.35
2018-09-24T06:30:40.899Z,1027.32
2018-09-24T06:31:40.864Z,1027.34
2018-09-24T06:32:40.896Z,1027.34
2018-09-24T06:33:40.990Z,1027.31
2018-09-24T06:34:41.020Z,1027.35
2018-09-24T06:35:41.056Z,1027.38
2018-09-24T06:36:41.014Z,1027.41
2018-09-24T06:37:41.040Z,1027.48
2018-09-24T06:38:41.126Z,1027.44
2018-09-24T06:39:41.164Z,1027.46
2018-09-24T06:40:41.127Z,1027.50
2018-09-24T06:41:41.173Z,1027.50
2018-09-24T06:42:41.246Z,1027.51
2018-09-24T06:43:41.224Z,1027.50
2018-09-24T06:44:41.305Z,1027.49
2018-09-24T06:45:41.287Z,1027.50
2018-09-24T06:46:41.367Z,1027.50
2018-09-24T06:47:41.343Z,1027.55
2018-09-24T06:48:41.369Z,1027.50
2018-09-24T06:49:41.510Z,1027.54
2018-09-24T06:50:41.486Z,1027.57
2018-09-24T06:51:41.455Z,1027.57
2018-09-24T06:52:41.533Z,1027.55
2018-09-24T06:53:41.529Z,1027.57
2018-09-24T06:54:41.606Z,1027.61
2018-09-24T06:55:41.623Z,1027.63
2018-09-24T06:56:41.614Z,1027.64
2018-09-24T06:57:41.699Z,1027.63
2018-09-24T06:58:41.970Z,1027.68
2018-09-24T06:59:41.800Z,1027.65
2018-09-24T07:00:41.732Z,1027.62
2018-09-24T07:01:41.757Z,1027.63
2018-09-24T07:02:41.834Z,1027.65
2018-09-24T07:03:41.860Z,1027.66
2018-09-24T07:04:42.180Z,1027.67
2018-09-24T07:05:41.932Z,1027.62
2018-09-24T07:06:41.950Z,1027.64
2018-09-24T07:07:41.984Z,1027.59
2018-09-24T07:08:41.963Z,1027.66
2018-09-24T07:09:42.039Z,1027.67
2018-09-24T07:10:42.323Z,1027.64
2018-09-24T07:11:42.056Z,1027.68
2018-09-24T07:12:42.134Z,1027.75
2018-09-24T07:13:42.160Z,1027.71
2018-09-24T07:14:42.143Z,1027.73
2018-09-24T07:15:42.224Z,1027.72
2018-09-24T07:16:42.254Z,1027.79
2018-09-24T07:17:42.286Z,1027.81
2018-09-24T07:18:42.307Z,1027.83
2018-09-24T07:19:42.300Z,1027.85
2018-09-24T07:20:42.376Z,1027.85
2018-09-24T07:21:42.401Z,1027.89
2018-09-24T07:22:42.681Z,1027.90
2018-09-24T07:23:42.456Z,1027.89
2018-09-24T07:24:42.484Z,1027.90
2018-09-24T07:25:42.516Z,1027.93
2018-09-24T07:26:42.554Z,1027.96
2018-09-24T07:27:42.611Z,1027.97
2018-09-24T07:28:42.610Z,1027.97
2018-09-24T07:29:42.886Z,1028.05
2018-09-24T07:30:42.674Z,1028.04
2018-09-24T07:31:42.645Z,1028.09
2018-09-24T07:32:42.679Z,1028.08
2018-09-24T07:33:42.761Z,1028.08
2018-09-24T07:34:42.785Z,1028.11
2018-09-24T07:35:42.773Z,1028.11
2018-09-24T07:36:43.097Z,1028.14
2018-09-24T07:37:42.878Z,1028.11
2018-09-24T07:38:42.916Z,1028.16
2018-09-24T07:39:42.937Z,1028.11
2018-09-24T07:40:42.913Z,1028.19
2018-09-24T07:41:43.002Z,1028.18
2018-09-24T07:42:42.977Z,1028.22
2018-09-24T07:43:43.060Z,1028.25
2018-09-24T07:44:43.091Z,1028.24
2018-09-24T07:45:43.070Z,1028.28
2018-09-24T07:46:43.155Z,1028.31
2018-09-24T07:47:43.142Z,1028.33
2018-09-24T07:48:43.202Z,1028.38
2018-09-24T07:49:43.488Z,1028.38
2018-09-24T07:50:43.267Z,1028.41
2018-09-24T07:51:43.242Z,1028.42
2018-09-24T07:52:43.332Z,1028.42
2018-09-24T07:53:43.358Z,1028.45
2018-09-24T07:54:43.394Z,1028.53
2018-09-24T07:55:43.668Z,1028.50
2018-09-24T07:56:43.440Z,1028.58
2018-09-24T07:57:43.480Z,1028.60
2018-09-24T07:58:43.469Z,1028.62
2018-09-24T07:59:43.492Z,1028.64
2018-09-24T08:00:43.560Z,1028.65
2018-09-24T08:01:43.850Z,1028.65
2018-09-24T08:02:43.629Z,1028.69
2018-09-24T08:03:43.610Z,1028.73
2018-09-24T08:04:43.629Z,1028.73
2018-09-24T08:05:43.664Z,1028.72
2018-09-24T08:06:43.744Z,1028.74
2018-09-24T08:07:44.019Z,1028.75
2018-09-24T08:08:43.755Z,1028.79
2018-09-24T08:09:43.778Z,1028.78
2018-09-24T08:10:43.859Z,1028.81
2018-09-24T08:11:43.890Z,1028.83
2018-09-24T08:12:43.954Z,1028.86
2018-09-24T08:13:43.948Z,1028.84
2018-09-24T08:14:43.979Z,1028.86
2018-09-24T08:15:44.007Z,1028.89
2018-09-24T08:16:44.044Z,1028.94
2018-09-24T08:17:44.071Z,1028.94
2018-09-24T08:18:44.098Z,1028.92
2018-09-24T08:19:44.079Z,1028.95
2018-09-24T08:20:44.115Z,1028.95
2018-09-24T08:22:44.170Z,1028.96
2018-09-24T08:23:44.256Z,1028.98
2018-09-24T08:24:44.230Z,1028.98
2018-09-24T08:25:44.262Z,1029.03
2018-09-24T08:26:44.335Z,1029.03
2018-09-24T08:27:44.320Z,1029.03
2018-09-24T08:28:44.419Z,1029.05
2018-09-24T08:29:44.428Z,1029.05
2018-09-24T08:30:44.416Z,1029.05
2018-09-24T08:31:44.437Z,1029.05
2018-09-24T08:32:44.826Z,1029.12
2018-09-24T08:33:44.557Z,1029.12
2018-09-24T08:34:44.599Z,1029.12
2018-09-24T08:35:44.622Z,1029.10
2018-09-24T08:36:44.594Z,1029.12
2018-09-24T08:37:44.636Z,1029.13
2018-09-24T08:38:44.954Z,1029.12
2018-09-24T08:39:44.726Z,1029.12
2018-09-24T08:40:44.715Z,1029.08
2018-09-24T08:41:44.786Z,1029.11
2018-09-24T08:42:44.816Z,1029.12
2018-09-24T08:43:44.797Z,1029.10
2018-09-24T08:44:44.877Z,1029.10
2018-09-24T08:45:44.859Z,1029.08
2018-09-24T08:46:44.938Z,1029.04
2018-09-24T08:47:44.926Z,1029.08
2018-09-24T08:48:44.952Z,1029.03
2018-09-24T08:49:45.116Z,1029.09
2018-09-24T08:50:45.409Z,1029.07
2018-09-24T08:51:45.037Z,1029.11
2018-09-24T08:52:45.121Z,1029.04
2018-09-24T08:53:45.155Z,1029.06
2018-09-24T08:54:45.224Z,1029.10
2018-09-24T08:55:45.160Z,1029.06
2018-09-24T08:56:45.417Z,1029.07
2018-09-24T08:57:45.522Z,1029.06
2018-09-24T08:58:45.304Z,1029.05
2018-09-24T08:59:45.332Z,1029.08
2018-09-24T09:00:45.323Z,1029.10
2018-09-24T09:01:45.340Z,1029.11
2018-09-24T09:02:45.486Z,1029.12
2018-09-24T09:03:45.403Z,1029.10
2018-09-24T09:06:45.789Z,1029.13
2018-09-24T09:07:45.582Z,1029.13
2018-09-24T09:08:45.604Z,1029.17
2018-09-24T09:09:45.632Z,1029.17
2018-09-24T09:10:45.670Z,1029.19
2018-09-24T09:11:45.696Z,1029.23
2018-09-24T09:12:45.974Z,1029.21
2018-09-24T09:13:45.767Z,1029.19
2018-09-24T09:14:45.796Z,1029.27
2018-09-24T09:15:45.765Z,1029.31
2018-09-24T09:16:45.795Z,1029.34
2018-09-24T09:17:45.877Z,1029.32
2018-09-24T09:18:45.900Z,1029.38
2018-09-24T09:19:46.186Z,1029.34
2018-09-24T09:20:45.932Z,1029.34
2018-09-24T09:21:45.939Z,1029.34
2018-09-24T09:22:46.021Z,1029.31
2018-09-24T09:23:46.007Z,1029.36
2018-09-24T09:24:46.094Z,1029.35
2018-09-24T09:25:46.126Z,1029.37
2018-09-24T09:26:46.397Z,1029.39
2018-09-24T09:27:46.148Z,1029.37
2018-09-24T09:28:46.235Z,1029.37
2018-09-24T09:29:46.267Z,1029.42
2018-09-24T09:31:46.294Z,1029.46
2018-09-24T09:32:46.276Z,1029.48
2018-09-24T09:33:51.453Z,1029.48
2018-09-24T09:34:46.356Z,1029.49
2018-09-24T09:35:46.431Z,1029.56
2018-09-24T09:36:46.470Z,1029.54
2018-09-24T09:38:46.537Z,1029.51
2018-09-24T09:39:46.575Z,1029.55
2018-09-24T09:40:46.574Z,1029.54
2018-09-24T09:41:46.610Z,1029.51
2018-09-24T09:43:46.618Z,1029.53
2018-09-24T09:44:46.710Z,1029.51
2018-09-24T09:45:46.724Z,1029.50
2018-09-24T09:46:46.796Z,1029.52
2018-09-24T09:47:46.826Z,1029.56
2018-09-24T09:48:46.796Z,1029.50
2018-09-24T09:49:46.849Z,1029.54
2018-09-24T09:50:46.881Z,1029.55
2018-09-24T09:51:47.368Z,1029.59
2018-09-24T09:52:46.941Z,1029.59
2018-09-24T09:53:46.932Z,1029.58
2018-09-24T09:54:47.011Z,1029.54
2018-09-24T09:55:47.037Z,1029.59
2018-09-24T09:56:47.109Z,1029.58
2018-09-24T09:57:47.353Z,1029.60
2018-09-24T09:58:47.127Z,1029.63
2018-09-24T09:59:47.293Z,1029.65
2018-09-24T10:00:47.184Z,1029.66
2018-09-24T10:01:47.244Z,1029.61
2018-09-24T10:02:47.240Z,1029.64
2018-09-24T10:03:47.640Z,1029.62
2018-09-24T10:04:47.386Z,1029.61
2018-09-24T10:05:47.307Z,1029.66
2018-09-24T10:06:47.378Z,1029.65
2018-09-24T10:07:47.429Z,1029.60
2018-09-24T10:08:47.389Z,1029.57
2018-09-24T10:09:47.477Z,1029.57
2018-09-24T10:10:47.748Z,1029.57
2018-09-24T10:11:47.488Z,1029.53
2018-09-24T10:12:47.511Z,1029.57
2018-09-24T10:13:47.535Z,1029.56
2018-09-24T10:14:47.622Z,1029.55
2018-09-24T10:15:47.677Z,1029.62
2018-09-24T10:16:47.640Z,1029.59
2018-09-24T10:17:47.649Z,1029.59
2018-09-24T10:18:47.726Z,1029.60
2018-09-24T10:19:47.734Z,1029.62
2018-09-24T10:20:47.808Z,1029.61
2018-09-24T10:21:47.768Z,1029.58
2018-09-24T10:22:47.971Z,1029.57
2018-09-24T10:23:48.156Z,1029.58
2018-09-24T10:24:47.910Z,1029.53
2018-09-24T10:25:47.904Z,1029.56
2018-09-24T10:26:47.992Z,1029.55
2018-09-24T10:27:48.018Z,1029.57
2018-09-24T10:28:47.997Z,1029.57
2018-09-24T10:29:48.074Z,1029.59
2018-09-24T10:30:48.448Z,1029.59
2018-09-24T10:31:48.111Z,1029.57
2018-09-24T10:32:48.169Z,1029.56
2018-09-24T10:33:48.326Z,1029.57
2018-09-24T10:34:48.241Z,1029.61
2018-09-24T10:35:48.215Z,1029.63
2018-09-24T10:36:48.284Z,1029.53
2018-09-24T10:37:48.674Z,1029.57
2018-09-24T10:38:48.369Z,1029.59
2018-09-24T10:39:48.494Z,1029.60
2018-09-24T10:40:48.357Z,1029.58
2018-09-24T10:41:48.446Z,1029.62
2018-09-24T10:42:48.420Z,1029.60
2018-09-24T10:43:48.541Z,1029.58
2018-09-24T10:44:48.554Z,1029.68
2018-09-24T10:45:48.577Z,1029.66
2018-09-24T10:46:48.588Z,1029.60
2018-09-24T10:47:48.618Z,1029.60
2018-09-24T10:48:48.652Z,1029.56
2018-09-24T10:49:48.657Z,1029.58
2018-09-24T10:50:48.735Z,1029.61
2018-09-24T10:51:48.701Z,1029.61
2018-09-24T10:52:48.832Z,1029.58
2018-09-24T10:53:48.822Z,1029.61
2018-09-24T10:54:48.847Z,1029.63
2018-09-24T10:55:48.986Z,1029.63
2018-09-24T10:56:48.904Z,1029.66
2018-09-24T10:57:48.928Z,1029.66
2018-09-24T10:58:48.990Z,1029.65
2018-09-24T10:59:49.005Z,1029.68
2018-09-24T11:00:48.977Z,1029.67
2018-09-24T11:01:49.031Z,1029.67
2018-09-24T11:02:49.384Z,1029.66
2018-09-24T11:03:49.110Z,1029.61
2018-09-24T11:04:49.205Z,1029.63
2018-09-24T11:05:49.186Z,1029.59
2018-09-24T11:06:49.209Z,1029.63
2018-09-24T11:07:49.250Z,1029.62
2018-09-24T11:08:49.263Z,1029.64
2018-09-24T11:09:49.557Z,1029.65
2018-09-24T11:10:49.342Z,1029.64
2018-09-24T11:11:49.393Z,1029.68
2018-09-24T11:12:49.407Z,1029.68
2018-09-24T11:13:49.432Z,1029.68
2018-09-24T11:14:49.466Z,1029.65
2018-09-24T11:15:49.612Z,1029.62
2018-09-24T11:16:50.070Z,1029.62
2018-09-24T11:17:49.791Z,1029.61
2018-09-24T11:18:49.590Z,1029.62
2018-09-24T11:19:49.615Z,1029.62
2018-09-24T11:20:49.653Z,1029.65
2018-09-24T11:21:49.715Z,1029.61
2018-09-24T11:22:49.708Z,1029.62
2018-09-24T11:23:49.759Z,1029.64
2018-09-24T11:24:49.868Z,1029.73
2018-09-24T11:25:49.759Z,1029.70
2018-09-24T11:26:49.836Z,1029.70
2018-09-24T11:27:49.831Z,1029.73
2018-09-24T11:28:49.891Z,1029.68
2018-09-24T11:29:50.241Z,1029.70
2018-09-24T11:30:49.977Z,1029.76
2018-09-24T11:31:49.994Z,1029.75
2018-09-24T11:32:50.046Z,1029.78
2018-09-24T11:33:50.017Z,1029.77
2018-09-24T11:34:50.076Z,1029.76
2018-09-24T11:35:50.075Z,1029.76
2018-09-24T11:36:50.177Z,1029.80
2018-09-24T11:37:50.151Z,1029.79
2018-09-24T11:38:50.282Z,1029.77
2018-09-24T11:39:50.249Z,1029.84
2018-09-24T11:40:50.273Z,1029.78
2018-09-24T11:41:50.380Z,1029.81
2018-09-24T11:42:50.341Z,1029.86
2018-09-24T11:43:50.310Z,1029.87
2018-09-24T11:44:50.401Z,1029.86
2018-09-24T11:45:50.418Z,1029.85
2018-09-24T11:46:50.456Z,1029.84
2018-09-24T11:47:50.493Z,1029.84
2018-09-24T11:48:50.786Z,1029.80
2018-09-24T11:49:50.501Z,1029.84
2018-09-24T11:50:50.579Z,1029.82
2018-09-24T11:51:50.619Z,1029.81
2018-09-24T11:52:50.652Z,1029.77
2018-09-24T11:53:50.665Z,1029.77
2018-09-24T11:54:50.719Z,1029.74
2018-09-24T11:55:50.725Z,1029.75
2018-09-24T11:56:50.756Z,1029.72
2018-09-24T11:57:50.793Z,1029.74
2018-09-24T11:58:50.840Z,1029.66
2018-09-24T11:59:50.868Z,1029.65
2018-09-24T12:00:51.146Z,1029.65
2018-09-24T12:01:50.877Z,1029.63
2018-09-24T12:02:50.970Z,1029.64
2018-09-24T12:03:50.980Z,1029.59
2018-09-24T12:04:51.030Z,1029.60
2018-09-24T12:05:51.073Z,1029.63
2018-09-24T12:06:51.086Z,1029.64
2018-09-24T12:07:51.064Z,1029.57
2018-09-24T12:08:51.151Z,1029.61
2018-09-24T12:09:51.174Z,1029.60
2018-09-24T12:10:51.213Z,1029.53
2018-09-24T12:11:51.253Z,1029.56
2018-09-24T12:12:51.638Z,1029.53
2018-09-24T12:13:51.596Z,1029.51
2018-09-24T12:14:51.319Z,1029.56
2018-09-24T12:15:51.368Z,1029.56
2018-09-24T12:16:51.392Z,1029.55
2018-09-24T12:17:51.360Z,1029.59
2018-09-24T12:18:51.447Z,1029.62
2018-09-24T12:19:51.448Z,1029.56
2018-09-24T12:20:51.506Z,1029.58
2018-09-24T12:21:51.491Z,1029.60
2018-09-24T12:22:51.584Z,1029.57